• Join FlightAware (Why Join?)
  • Login
  • US Flag 
08:28PM EDT


 

Airport Tracker/Info


-or-


 

Live Flight TrackerFlight Track Log ✈ JBU1483 ✈ 05-Jul-2013 ✈ KMCO - SKBO / BOG

Flight Track Log - Related Links

Times and Time Zones

All times are in EDT time to prevent confusion due to time zone crossing. See the JBU1483 flight status page for this flight to view local times or setup timezone preferences in your user account.

Time Position Orientation Groundspeed Altitude Reporting Facility
EDT Latitude Longitude Course Direction KTS MPH feet Rate Location/Type
09:09PM 28.4340 -81.3170 25° Northeast  Level FlightAware
09:11PM 28.4350 -81.3170 360° North 10 12 60 Level FlightAware
09:11PM 28.4350 -81.3180 270° West 10 12 120 Level FlightAware
09:12PM 28.4360 -81.3180 360° North 11 13 120 Level FlightAware
09:12PM 28.4370 -81.3180 360° North 12 14 120 Level FlightAware
09:13PM 28.4400 -81.3190 344° North 12 14 120 Level FlightAware
09:13PM 28.4410 -81.3190 360° North 14 16 120 Level FlightAware
09:13PM 28.4420 -81.3190 360° North 12 14 120 Level FlightAware
09:14PM 28.4440 -81.3190 360° North 16 18 180 Level FlightAware
09:14PM 28.4450 -81.3190 360° North 17 20 180 Level FlightAware
09:15PM 28.4470 -81.3190 360° North 7 8 180 Level FlightAware
09:15PM 28.4480 -81.3190 360° North 8 9 180 Level FlightAware
09:15PM 28.4480 -81.3200 270° West 7 8 240 Level FlightAware
09:16PM 28.4480 -81.3220 270° West 7 8 240 Level FlightAware
09:18PM 28.4290 -81.3220 139° Southeast 162 186 360 Level FlightAware
09:19PM 28.2356 -81.2468 139° Southeast  Level Estimated
09:19PM 28.4080 -81.3230 182° South 161 185 1,000  Level FlightAware
09:19PM 28.3890 -81.3230 180° South 165 190 1,900 1,800 Climbing FlightAware
09:20PM 28.3780 -81.3170 154° Southeast 185 213 2,200 900 Climbing FlightAware
09:20PM 28.3560 -81.2940 137° Southeast 232 267 2,600 1,440 Climbing FlightAware
09:20PM 28.3400 -81.2760 135° Southeast 253 291 3,400 2,880 Climbing FlightAware
09:21PM 28.3150 -81.2470 134° Southeast 258 297 5,000 3,060 Climbing FlightAware
09:21PM 28.3040 -81.2310 128° Southeast 262 302 5,700 2,760 Climbing FlightAware
09:22PM 28.2930 -81.1900 107° East 273 314 7,100 2,640 Climbing FlightAware
09:22PM 28.2880 -81.1620 101° East 281 323 7,900 2,640 Climbing FlightAware
09:22PM 28.2760 -81.1180 107° East 282 325 9,300 2,220 Climbing FlightAware
09:23PM 28.2320 -81.0710 137° Southeast 307 353 10,700 1,440 Climbing FlightAware
09:24PM 28.1870 -81.0230 137° Southeast 348 400 11,400 1,800 Climbing FlightAware
09:25PM 28.1340 -80.9670 137° Southeast 348 400 13,300 2,100 Climbing FlightAware
09:25PM 28.0730 -80.9030 137° Southeast 355 409 14,800 1,860 Climbing FlightAware
09:26PM 28.0240 -80.8510 137° Southeast 362 417 16,100 1,800 Climbing FlightAware
09:27PM 27.9560 -80.7800 137° Southeast 373 429 17,700 1,680 Climbing FlightAware
09:28PM 27.8860 -80.7070 137° Southeast 375 432 19,200 1,680 Climbing FlightAware
09:29PM 27.8270 -80.6450 137° Southeast 379 436 20,500 1,500 Climbing FlightAware
09:29PM 27.7750 -80.5900 137° Southeast 384 442 21,400 660 Climbing FlightAware
09:30PM 27.7030 -80.5140 137° Southeast 392 451 21,700 1,200 Climbing FlightAware
09:31PM 27.6510 -80.4780 148° Southeast 407 468 23,100 1,860 Climbing FlightAware
09:31PM 27.5910 -80.4540 160° South 418 481 23,500 960 Climbing FlightAware
09:32PM 27.5090 -80.4220 161° South 415 478 24,400 960 Climbing FlightAware
09:33PM 27.4230 -80.3880 161° South 425 489 25,000 960 Climbing FlightAware
09:33PM 27.3670 -80.3650 160° South 428 493 25,600 1,080 Climbing FlightAware
09:34PM 27.2770 -80.3300 161° South 441 507 26,400 960 Climbing FlightAware
09:35PM 27.2020 -80.3000 160° South 446 513 27,000 720 Climbing FlightAware
09:35PM 27.1230 -80.2690 161° South 447 514 27,400 660 Climbing FlightAware
09:36PM 27.0430 -80.2370 160° South 462 532 27,900 780 Climbing FlightAware
09:37PM 26.9630 -80.2060 161° South 459 528 28,500 900 Climbing FlightAware
09:37PM 26.8690 -80.1690 161° South 462 532 29,200 960 Climbing FlightAware
09:38PM 26.7880 -80.1370 161° South 459 528 29,900 1,080 Climbing FlightAware
09:39PM 26.7050 -80.1040 160° South 457 526 30,700 900 Climbing FlightAware
09:40PM 26.6160 -80.0700 161° South 461 531 31,200 900 Climbing FlightAware
09:40PM 26.5430 -80.0410 160° South 459 528 31,900 1,020 Climbing FlightAware
09:41PM 26.4600 -80.0090 161° South 459 528 32,500 1,020 Climbing FlightAware
09:42PM 26.3700 -79.9740 161° South 460 529 33,400 840 Climbing FlightAware
09:42PM 26.2870 -79.9410 160° South 462 532 33,700 600 Climbing FlightAware
09:43PM 26.1970 -79.9060 161° South 460 529 34,300 780 Climbing FlightAware
09:44PM 26.1140 -79.8740 161° South 464 534 34,900 480 Climbing FlightAware
09:44PM 26.0320 -79.8430 161° South 462 532 35,000 60 Climbing FlightAware
09:45PM 25.9420 -79.8080 161° South 462 532 35,000  Level FlightAware
09:46PM 25.8600 -79.7760 161° South 464 534 35,000  Level FlightAware
09:46PM 25.7690 -79.7410 161° South 459 528 35,000  Level FlightAware
09:47PM 25.6860 -79.7090 161° South 461 531 35,000  Level FlightAware
09:48PM 25.5980 -79.6750 161° South 461 531 35,000  Level FlightAware
09:49PM 25.5130 -79.6420 161° South 461 531 35,000  Level FlightAware
09:49PM 25.4100 -79.6030 161° South 462 532 35,000  Level FlightAware
09:50PM 25.3280 -79.5710 161° South 461 531 35,000  Level FlightAware
09:51PM 25.2450 -79.5390 161° South 461 531 35,000  Level FlightAware
09:51PM 25.1740 -79.5120 161° South 460 529 35,000  Level FlightAware
09:52PM 25.0800 -79.4770 161° South 460 529 35,000 480 Level FlightAware
09:53PM 25.0020 -79.4470 161° South 456 525 35,700 660 Climbing FlightAware
09:53PM 24.9120 -79.4130 161° South 459 528 36,000 660 Climbing FlightAware
09:54PM 24.8300 -79.3820 161° South 445 512 36,700 540 Climbing FlightAware
09:55PM 24.7420 -79.3490 161° South 460 529 36,800 120 Climbing FlightAware
09:56PM 24.6610 -79.3180 161° South 456 525 36,900 120 Climbing FlightAware
09:56PM 24.5880 -79.2910 161° South 461 531 37,000 60 Climbing FlightAware
09:57PM 24.4970 -79.2560 161° South 458 527 37,000  Level FlightAware
09:57PM 24.4250 -79.2290 161° South 463 533 37,000  Level FlightAware
09:58PM 24.3350 -79.1950 161° South 459 528 37,000  Level FlightAware
09:59PM 24.2560 -79.1650 161° South 459 528 37,000  Level FlightAware
10:00PM 24.1140 -79.1120 161° South 463 533 37,000  Level FlightAware
10:01PM 24.0080 -79.0760 163° South 462 532 37,000  Level FlightAware
10:02PM 23.9120 -79.0590 171° South 470 541 37,000  Level FlightAware
10:02PM 23.8280 -79.0470 173° South 471 542 37,000  Level FlightAware
10:03PM 23.7140 -79.0320 173° South 471 542 37,000  Level FlightAware
10:04PM 23.6260 -79.0210 173° South 471 542 37,000  Level FlightAware
10:05PM 23.5380 -79.0090 173° South 471 542 37,000  Level FlightAware
10:05PM 23.4700 -79.0000 173° South 471 542 37,000  Level FlightAware
10:06PM 23.3240 -78.9820 174° South 472 543 37,000  Level FlightAware
10:07PM 23.2510 -78.9720 173° South 472 543 37,000  Level FlightAware
10:07PM 23.1540 -78.9600 174° South 483 556 37,000  Level FlightAware
10:08PM 23.0820 -78.9510 173° South 483 556 37,000  Level FlightAware
10:09PM 22.9920 -78.9390 173° South 483 556 37,000  Level FlightAware
10:10PM 22.9240 -78.9300 173° South 483 556 37,000  Level FlightAware
10:10PM 22.8560 -78.9200 172° South 483 556 37,000  Level FlightAware
10:11PM 22.7660 -78.9080 173° South 483 556 37,000  Level FlightAware
10:12PM 22.6750 -78.8960 173° South 483 556 37,000  Level FlightAware
10:12PM 22.6020 -78.8870 174° South 483 556 37,000  Level FlightAware
10:13PM 22.5320 -78.8770 172° South 483 556 37,000  Level FlightAware
10:14PM 22.4640 -78.8680 173° South 483 556 37,000  Level FlightAware
10:14PM 22.3750 -78.8570 173° South 483 556 37,000  Level FlightAware
10:15PM 22.3110 -78.8480 173° South 483 556 37,000  Level FlightAware
10:16PM 22.2430 -78.8390 173° South 483 556 37,000  Level FlightAware
10:16PM 22.1530 -78.8270 173° South 483 556 37,000  Level FlightAware
10:17PM 22.0830 -78.8180 173° South 483 556 37,000 -60 Level FlightAware
10:20PM 21.7848 -78.7385 165° South  Level FlightAware Approximate
10:21PM 21.6684 -78.7053 165° South  Level FlightAware Approximate
10:22PM 21.5520 -78.6721 165° South  Level FlightAware Approximate
10:23PM 21.4356 -78.6390 165° South  Level FlightAware Approximate
10:24PM 21.3191 -78.6059 165° South  Level FlightAware Approximate
10:25PM 21.2027 -78.5730 165° South  Level FlightAware Approximate
10:26PM 21.0863 -78.5400 165° South  Level FlightAware Approximate
10:27PM 20.9698 -78.5071 165° South  Level FlightAware Approximate
10:28PM 20.8534 -78.4743 165° South  Level FlightAware Approximate
10:29PM 20.7369 -78.4415 165° South  Level FlightAware Approximate
10:30PM 20.6204 -78.4088 165° South  Level FlightAware Approximate
10:31PM 20.5040 -78.3761 165° South  Level FlightAware Approximate
10:32PM 20.3875 -78.3434 165° South  Level FlightAware Approximate
10:33PM 20.2710 -78.3108 165° South  Level FlightAware Approximate
10:34PM 20.1545 -78.2783 165° South  Level FlightAware Approximate
10:35PM 20.0380 -78.2458 165° South  Level FlightAware Approximate
10:36PM 19.9215 -78.2134 165° South  Level FlightAware Approximate
10:37PM 19.8050 -78.1809 165° South  Level FlightAware Approximate
10:38PM 19.6886 -78.1484 165° South  Level FlightAware Approximate
10:39PM 19.5721 -78.1160 165° South  Level FlightAware Approximate
10:40PM 19.4556 -78.0836 165° South  Level FlightAware Approximate
10:41PM 19.3391 -78.0513 165° South  Level FlightAware Approximate
10:42PM 19.2225 -78.0191 165° South  Level FlightAware Approximate
10:43PM 19.1060 -77.9868 165° South  Level FlightAware Approximate
10:44PM 18.9895 -77.9547 165° South  Level FlightAware Approximate
10:45PM 18.8730 -77.9225 165° South  Level FlightAware Approximate
10:46PM 18.7565 -77.8904 165° South  Level FlightAware Approximate
10:47PM 18.6399 -77.8584 165° South  Level FlightAware Approximate
10:48PM 18.5234 -77.8264 165° South  Level FlightAware Approximate
10:49PM 18.4068 -77.7945 165° South  Level FlightAware Approximate
10:50PM 18.2903 -77.7626 165° South  Level FlightAware Approximate
10:51PM 18.1737 -77.7307 165° South  Level FlightAware Approximate
10:52PM 18.0571 -77.6989 165° South  Level FlightAware Approximate
10:53PM 17.9406 -77.6671 165° South  Level FlightAware Approximate
10:54PM 17.8240 -77.6353 165° South  Level FlightAware Approximate
10:55PM 17.7075 -77.6032 165° South  Level FlightAware Approximate
10:56PM 17.5911 -77.5711 165° South  Level FlightAware Approximate
10:57PM 17.4746 -77.5390 165° South  Level FlightAware Approximate
10:58PM 17.3581 -77.5069 165° South  Level FlightAware Approximate
10:59PM 17.2416 -77.4749 165° South  Level FlightAware Approximate
11:00PM 17.1252 -77.4429 165° South  Level FlightAware Approximate
11:01PM 17.0087 -77.4110 165° South  Level FlightAware Approximate
11:02PM 16.8922 -77.3791 165° South  Level FlightAware Approximate
11:03PM 16.7757 -77.3473 165° South  Level FlightAware Approximate
11:04PM 16.6591 -77.3155 165° South  Level FlightAware Approximate
11:05PM 16.5426 -77.2837 165° South  Level FlightAware Approximate
11:06PM 16.4261 -77.2520 165° South  Level FlightAware Approximate
11:07PM 16.3096 -77.2203 165° South  Level FlightAware Approximate
11:08PM 16.1931 -77.1886 165° South  Level FlightAware Approximate
11:09PM 16.0765 -77.1570 165° South  Level FlightAware Approximate
11:10PM 15.9600 -77.1254 165° South  Level FlightAware Approximate
11:11PM 15.8435 -77.0939 165° South  Level FlightAware Approximate
11:12PM 15.7269 -77.0624 165° South  Level FlightAware Approximate
11:13PM 15.6104 -77.0309 165° South  Level FlightAware Approximate
11:14PM 15.4938 -76.9995 165° South  Level FlightAware Approximate
11:15PM 15.3772 -76.9680 165° South  Level FlightAware Approximate
11:16PM 15.2607 -76.9367 165° South  Level FlightAware Approximate
11:17PM 15.1441 -76.9053 165° South  Level FlightAware Approximate
11:18PM 15.0275 -76.8741 165° South  Level FlightAware Approximate
11:19PM 14.9098 -76.8483 169° South  Level FlightAware Approximate
11:20PM 14.7916 -76.8242 169° South  Level FlightAware Approximate
11:21PM 14.6735 -76.8001 169° South  Level FlightAware Approximate
11:22PM 14.5553 -76.7760 169° South  Level FlightAware Approximate
11:23PM 14.4372 -76.7520 169° South  Level FlightAware Approximate
11:24PM 14.3190 -76.7280 169° South  Level FlightAware Approximate
11:25PM 14.2008 -76.7040 169° South  Level FlightAware Approximate
11:26PM 14.0827 -76.6801 169° South  Level FlightAware Approximate
11:27PM 13.9645 -76.6562 169° South  Level FlightAware Approximate
11:28PM 13.8463 -76.6323 169° South  Level FlightAware Approximate
11:29PM 13.7282 -76.6084 169° South  Level FlightAware Approximate
11:30PM 13.6100 -76.5846 169° South  Level FlightAware Approximate
11:31PM 13.4918 -76.5608 169° South  Level FlightAware Approximate
11:32PM 13.3736 -76.5369 169° South  Level FlightAware Approximate
11:33PM 13.2555 -76.5132 169° South  Level FlightAware Approximate
11:34PM 13.1373 -76.4894 169° South  Level FlightAware Approximate
11:35PM 13.0191 -76.4657 169° South  Level FlightAware Approximate
11:36PM 12.9009 -76.4420 169° South  Level FlightAware Approximate
11:37PM 12.7827 -76.4183 169° South  Level FlightAware Approximate
11:38PM 12.6645 -76.3946 169° South  Level FlightAware Approximate
11:39PM 12.5463 -76.3710 169° South  Level FlightAware Approximate
11:40PM 12.4281 -76.3474 169° South  Level FlightAware Approximate
11:41PM 12.3099 -76.3238 169° South  Level FlightAware Approximate
11:42PM 12.1917 -76.3002 169° South  Level FlightAware Approximate
11:43PM 12.0735 -76.2766 169° South  Level FlightAware Approximate
11:43PM 11.3630 -76.1460 169° South 436 502 36,000  Level FlightAware
11:43PM 11.2720 -76.1290 170° South 438 504 36,000  Level FlightAware
11:44PM 11.9553 -76.2531 169° South  Level FlightAware Approximate
11:44PM 11.1710 -76.1080 168° South 439 505 36,000  Level FlightAware
11:45PM 11.0820 -76.0910 169° South 439 505 36,000  Level FlightAware
11:46PM 11.0010 -76.0750 169° South 438 504 36,000  Level FlightAware
11:46PM 10.9310 -76.0610 169° South 438 504 36,000 60 Level FlightAware
11:47PM 10.8410 -76.0430 169° South 438 504 36,100 420 Climbing FlightAware
11:48PM 10.7610 -76.0270 169° South 439 505 36,600 600 Climbing FlightAware
11:48PM 10.6750 -76.0100 169° South 432 497 37,000 240 Climbing FlightAware
11:49PM 10.5930 -75.9940 169° South 436 502 37,000  Level FlightAware
11:50PM 10.5030 -75.9760 169° South 436 502 37,000  Level FlightAware
11:50PM 10.4340 -75.9630 170° South 436 502 37,000  Level FlightAware
11:51PM 10.3440 -75.9450 169° South 440 506 37,000 60 Level FlightAware
11:52PM 10.2630 -75.9290 169° South 440 506 37,100  Climbing FlightAware
11:52PM 10.1940 -75.9150 169° South 438 504 37,000 -120 Descending FlightAware
11:53PM 10.1140 -75.8990 169° South 435 501 37,000  Level FlightAware
11:54PM 10.0360 -75.8840 169° South 434 499 37,000  Level FlightAware
11:54PM 9.9470 -75.8670 169° South 434 499 37,000  Level FlightAware
11:55PM 9.8600 -75.8490 168° South 433 498 37,000  Level FlightAware
11:56PM 9.7800 -75.8340 170° South 434 499 37,000  Level FlightAware
11:57PM 9.6990 -75.8180 169° South 435 501 37,000  Level FlightAware
11:57PM 9.6310 -75.8040 169° South 435 501 37,000  Level FlightAware
11:58PM 9.5590 -75.7900 169° South 437 503 37,000  Level FlightAware
11:59PM 9.4660 -75.7720 169° South 437 503 37,000  Level FlightAware
11:59PM 9.3960 -75.7580 169° South 437 503 37,000  Level FlightAware
12:00AM 9.2870 -75.7370 169° South 439 505 37,000  Level FlightAware
12:01AM 9.2030 -75.7200 169° South 438 504 37,000  Level FlightAware
12:01AM 9.1120 -75.7030 170° South 436 502 37,000  Level FlightAware
12:02AM 9.0480 -75.6900 169° South 436 502 37,000  Level FlightAware
12:03AM 8.9160 -75.6640 169° South 436 502 37,000  Level FlightAware
12:04AM 8.8520 -75.6520 170° South 436 502 37,000  Level FlightAware
12:04AM 8.7900 -75.6390 168° South 436 502 37,000  Level FlightAware
12:05AM 8.6910 -75.6200 169° South 437 503 37,000  Level FlightAware
12:06AM 8.6050 -75.6030 169° South 437 503 37,000  Level FlightAware
12:07AM 8.5020 -75.5830 169° South 440 506 37,000  Level FlightAware
12:08AM 8.3940 -75.5620 169° South 441 507 37,000  Level FlightAware
12:08AM 8.3200 -75.5480 169° South 442 509 37,000 60 Level FlightAware
12:09AM 8.2010 -75.5240 169° South 440 506 37,100  Climbing FlightAware
12:10AM 8.0530 -75.4960 169° South 435 501 37,000 -60 Descending FlightAware
12:11AM 7.9660 -75.4790 169° South 431 496 37,000 -120 Level FlightAware
12:12AM 7.8800 -75.4620 169° South 432 497 36,900 -120 Descending FlightAware
12:13AM 7.7860 -75.4440 169° South 435 501 36,900  Level FlightAware
12:14AM 7.6680 -75.4200 169° South 437 503 37,000 60 Climbing FlightAware
12:14AM 7.5900 -75.4040 169° South 435 501 37,000  Level FlightAware
12:16AM 7.4410 -75.3740 169° South 436 502 37,000  Level FlightAware
12:16AM 7.3370 -75.3530 169° South 441 507 37,000  Level FlightAware
12:17AM 7.2450 -75.3340 168° South 446 513 37,000  Level FlightAware
12:18AM 7.1740 -75.3200 169° South 450 518 37,000  Level FlightAware
12:18AM 7.0820 -75.3010 168° South 451 519 37,000  Level FlightAware
12:19AM 7.0030 -75.2850 169° South 428 493 37,000  Level FlightAware
12:20AM 6.9140 -75.2670 169° South 435 501 37,000  Level FlightAware
12:21AM 6.8340 -75.2510 169° South 440 506 37,000  Level FlightAware
12:21AM 6.7440 -75.2330 169° South 445 512 37,000  Level FlightAware
12:22AM 6.6630 -75.2160 168° South 446 513 37,000  Level FlightAware
12:23AM 6.5710 -75.1980 169° South 442 509 37,000  Level FlightAware
12:23AM 6.4920 -75.1820 169° South 437 503 37,000  Level FlightAware
12:24AM 6.4030 -75.1640 169° South 431 496 37,000 -720 Level FlightAware
12:25AM 6.3270 -75.1490 169° South 426 490 36,000 -2,340 Descending FlightAware
12:26AM 6.2360 -75.1300 168° South 439 505 33,700 -3,180 Descending FlightAware
12:26AM 6.1580 -75.1150 169° South 452 520 31,500 -1,740 Descending FlightAware
12:27AM 6.0930 -75.1020 169° South 452 520 31,500  Level FlightAware
12:28AM 6.0080 -75.0850 169° South 452 520 31,500  Level FlightAware
12:28AM 5.9450 -75.0730 169° South 452 520 31,500  Level FlightAware
12:29AM 5.8610 -75.0570 169° South 452 520 31,500  Level FlightAware
12:29AM 5.8200 -75.0490 169° South 452 520 31,500  Level FlightAware
12:31AM 5.7010 -75.0250 169° South 452 520 31,500  Level FlightAware
12:31AM 5.6380 -75.0130 169° South 452 520 31,500  Level FlightAware
12:32AM 5.5530 -74.9960 169° South 452 520 31,500  Level FlightAware
12:33AM 5.4900 -74.9840 169° South 452 520 31,500  Level FlightAware
12:33AM 5.4040 -74.9670 169° South 452 520 31,500  Level FlightAware
12:34AM 5.3410 -74.9550 169° South 452 520 31,500  Level FlightAware
12:35AM 5.2580 -74.9390 169° South 452 520 31,500  Level FlightAware
12:35AM 5.1930 -74.9260 169° South 452 520 31,500 -4,200 Level FlightAware
12:38AM 5.0593 -74.7057 124° Southeast  Level FlightAware Approximate
12:39AM 4.9937 -74.6043 123° Southeast  Level FlightAware Approximate
12:40AM 4.9288 -74.5025 123° Southeast  Level FlightAware Approximate
12:40AM 4.9870 -74.4450 123° Southeast 257 296 11,600  Level FlightAware
12:40AM 4.9500 -74.4120 138° Southeast 253 291 11,600  Level FlightAware
12:41AM 4.9130 -74.3810 140° Southeast 223 257 11,600  Level FlightAware
12:42AM 4.8790 -74.3510 139° Southeast 220 253 11,600  Level FlightAware
12:42AM 4.8490 -74.3250 139° Southeast 206 237 11,600 -180 Level FlightAware
12:43AM 4.8250 -74.3000 134° Southeast 189 217 11,400 -720 Descending FlightAware
12:44AM 4.8000 -74.2670 127° Southeast 188 216 10,600 -960 Descending FlightAware
12:44AM 4.7830 -74.2440 127° Southeast 187 215 10,100 -900 Descending FlightAware
12:45AM 4.7660 -74.2220 128° Southeast 177 204 9,600 -540 Descending FlightAware
12:45AM 4.7560 -74.2080 126° Southeast 177 204 9,600  Level FlightAware
12:46AM 4.7400 -74.1880 129° Southeast 177 204 9,600  Level FlightAware
12:46AM 4.7350 -74.1810 126° Southeast 177 204 9,600  Level FlightAware
12:47AM 4.7250 -74.1680 128° Southeast 177 204 9,600  Level FlightAware
12:47AM 4.7050 -74.1410 127° Southeast 94 108 -13,140 Descending FlightAware
12:48AM 4.6990 -74.1330 127° Southeast 94 108  Level FlightAware
12:49AM 4.6990 -74.1350 270° West 32 37  Level FlightAware
12:49AM 4.6990 -74.1360 270° West 24 28  Level FlightAware
12:50AM 4.6990 -74.1380 270° West 15 17  Level FlightAware
12:52AM 4.7000 -74.1333 117° Southeast  Level FlightAware Approximate
12:52AM 4.6990 -74.1410 117° Southeast  Level FlightAware
12:54AM 4.7000 -74.1333 117° Southeast  Level FlightAware Approximate
12:55AM 4.7016 -74.1469 117° Southeast  Level Estimated
12:56AM 4.7016 -74.1469 117° Southeast  Level Estimated